Time;durP1;ratioP1;P1;durP2;ratioP2;P2;SDS_P1;SDS_P2;PMS_P1;PMS_P2;Temp;Humidity;BMP_temperature;BMP_pressure;BME280_temperature;BME280_humidity;BME280_pressure;Samples;Min_cycle;Max_cycle;Signal;HPM_P1;HPM_P2
2021/08/15 00:02:19;;;;;;;17.10;8.73;;;;;;;18.69;58.14;100524.58;1683963;85;21094;-75
2021/08/15 00:04:45;;;;;;;15.05;8.60;;;;;;;18.67;58.15;100525.86;1684034;85;21571;-75
2021/08/15 00:07:12;;;;;;;17.23;9.05;;;;;;;18.63;58.14;100517.36;1683839;85;21082;-75
2021/08/15 00:09:38;;;;;;;17.10;7.97;;;;;;;18.58;58.21;100519.88;1684118;84;21186;-75
2021/08/15 00:12:06;;;;;;;16.35;8.13;;;;;;;18.53;58.28;100522.43;1684033;85;21510;-75
2021/08/15 00:14:32;;;;;;;14.95;7.70;;;;;;;18.47;58.36;100518.67;1683944;85;21081;-75
2021/08/15 00:16:58;;;;;;;15.55;8.55;;;;;;;18.45;58.46;100523.48;1683951;85;21081;-75
2021/08/15 00:19:24;;;;;;;17.25;8.83;;;;;;;18.42;58.53;100521.74;1684089;84;21034;-75
2021/08/15 00:21:50;;;;;;;12.37;8.23;;;;;;;18.38;58.58;100524.05;1683891;85;21046;-75
2021/08/15 00:24:17;;;;;;;12.37;8.13;;;;;;;18.33;58.63;100518.46;1684007;85;21487;-75
2021/08/15 00:26:43;;;;;;;14.45;9.30;;;;;;;18.31;58.69;100527.31;1683421;85;21034;-75
2021/08/15 00:29:09;;;;;;;17.62;10.48;;;;;;;18.27;58.73;100519.34;1683853;85;21082;-75
2021/08/15 00:31:36;;;;;;;15.53;9.75;;;;;;;18.25;58.74;100521.44;1684264;85;22295;-75
2021/08/15 00:34:02;;;;;;;14.45;9.75;;;;;;;18.25;58.81;100523.30;1683722;85;21894;-75
2021/08/15 00:36:28;;;;;;;17.27;10.00;;;;;;;18.24;58.88;100518.42;1635847;84;21053;-75
2021/08/15 00:38:54;;;;;;;20.20;10.72;;;;;;;18.24;58.91;100515.73;1653091;86;21032;-75
2021/08/15 00:41:21;;;;;;;16.05;9.45;;;;;;;18.24;58.99;100519.77;1668484;85;21078;-75
2021/08/15 00:43:47;;;;;;;15.55;9.28;;;;;;;18.24;59.06;100517.59;1698640;84;21035;-75
2021/08/15 00:46:13;;;;;;;15.13;9.13;;;;;;;18.21;59.17;100514.81;1698606;84;21201;-75
2021/08/15 00:48:40;;;;;;;17.60;9.33;;;;;;;18.17;59.28;100509.53;1698647;84;21507;-75
2021/08/15 00:51:06;;;;;;;13.00;7.42;;;;;;;18.16;59.40;100507.87;1698534;84;21024;-75
2021/08/15 00:53:35;;;;;;;13.15;6.97;;;;;;;18.13;59.50;100502.08;1698756;84;21044;-75
2021/08/15 00:56:06;;;;;;;11.13;6.73;;;;;;;18.13;59.58;100504.27;1699057;84;21080;-74
2021/08/15 00:58:36;;;;;;;11.70;6.92;;;;;;;18.15;59.58;100512.98;1698817;84;21151;-75
2021/08/15 01:01:06;;;;;;;10.43;6.80;;;;;;;18.23;59.53;100522.67;1664949;86;21019;-75
2021/08/15 01:03:32;;;;;;;10.23;7.78;;;;;;;18.23;59.50;100523.52;1698980;84;21537;-75
2021/08/15 01:05:59;;;;;;;11.55;7.87;;;;;;;18.20;59.49;100525.30;1674789;84;21004;-75
2021/08/15 01:08:27;;;;;;;12.78;8.83;;;;;;;18.17;59.53;100522.20;1698639;84;21092;-75
2021/08/15 01:10:54;;;;;;;14.50;9.15;;;;;;;18.15;59.51;100526.48;1698723;84;21208;-75
2021/08/15 01:13:20;;;;;;;14.00;8.50;;;;;;;18.10;59.53;100524.94;1698575;84;21068;-75
2021/08/15 01:15:46;;;;;;;11.25;8.05;;;;;;;18.06;59.60;100527.77;1698600;84;21016;-75
2021/08/15 01:18:22;;;;;;;14.43;8.85;;;;;;;18.00;59.61;100529.15;1698730;84;21024;-75
2021/08/15 01:21:09;;;;;;;14.68;8.10;;;;;;;17.92;59.67;100530.22;1664208;85;21035;-75
2021/08/15 01:23:38;;;;;;;16.20;8.58;;;;;;;17.90;59.72;100524.22;1698803;84;21328;-75
2021/08/15 01:26:05;;;;;;;18.65;7.97;;;;;;;17.87;59.75;100527.34;1698324;84;21430;-75
2021/08/15 01:28:31;;;;;;;16.50;8.63;;;;;;;17.83;59.79;100523.42;1698598;84;21315;-75
2021/08/15 01:30:57;;;;;;;18.50;10.68;;;;;;;17.79;59.83;100519.48;1698665;84;21027;-75
2021/08/15 01:33:34;;;;;;;21.25;11.15;;;;;;;17.76;59.87;100527.50;1698616;84;21051;-75
2021/08/15 01:36:01;;;;;;;17.15;8.78;;;;;;;17.72;59.94;100524.08;1698412;84;21800;-75
2021/08/15 01:38:29;;;;;;;13.53;8.53;;;;;;;17.70;60.01;100522.09;1698679;84;20992;-75
2021/08/15 01:40:55;;;;;;;17.15;8.50;;;;;;;17.71;60.07;100519.72;1673385;84;21040;-75
2021/08/15 01:43:21;;;;;;;15.23;7.97;;;;;;;17.73;60.12;100514.95;1676839;85;21038;-75
2021/08/15 01:45:47;;;;;;;14.40;8.93;;;;;;;17.73;60.17;100511.70;1677302;85;21107;-75
2021/08/15 01:48:13;;;;;;;11.53;7.25;;;;;;;17.74;60.21;100513.89;1677897;85;21200;-74
2021/08/15 01:50:40;;;;;;;13.28;7.53;;;;;;;17.72;60.26;100513.29;1677072;85;21080;-75
2021/08/15 01:53:10;;;;;;;20.72;11.80;;;;;;;17.68;60.32;100508.84;1677313;85;21020;-75
2021/08/15 01:55:40;;;;;;;14.18;8.95;;;;;;;17.61;60.43;100512.08;1648010;87;21449;-75
2021/08/15 01:58:07;;;;;;;;;;;;;;;17.57;60.56;100514.06;1679936;85;21000;-75
2021/08/15 02:00:35;;;;;;;15.98;7.53;;;;;;;17.53;60.65;100519.53;1648144;87;21179;-75
2021/08/15 02:03:01;;;;;;;12.03;7.95;;;;;;;17.49;60.74;100511.87;1677163;85;21057;-75
2021/08/15 02:05:27;;;;;;;11.00;7.45;;;;;;;17.47;60.79;100511.27;1677054;85;21110;-75
2021/08/15 02:07:56;;;;;;;13.80;7.97;;;;;;;17.41;60.87;100504.03;1677943;85;21081;-75
2021/08/15 02:10:26;;;;;;;19.32;7.50;;;;;;;17.35;60.98;100511.59;1677454;85;21052;-75
2021/08/15 02:12:52;;;;;;;18.62;7.87;;;;;;;17.28;61.12;100516.17;1676959;85;22011;-75
2021/08/15 02:15:18;;;;;;;12.65;8.40;;;;;;;17.25;61.23;100512.56;1678007;85;21014;-75
2021/08/15 02:17:45;;;;;;;12.05;7.58;;;;;;;17.22;61.35;100509.45;1676955;85;21076;-75
2021/08/15 02:20:13;;;;;;;11.15;7.20;;;;;;;17.18;61.46;100519.83;1677188;85;21012;-74
2021/08/15 02:22:39;;;;;;;9.48;6.28;;;;;;;17.13;61.53;100516.95;1678061;85;21074;-75
2021/08/15 02:25:09;;;;;;;15.60;8.28;;;;;;;17.09;61.65;100521.09;1676896;85;21188;-74
2021/08/15 02:27:36;;;;;;;10.72;7.03;;;;;;;17.09;61.73;100531.05;1677096;85;21024;-75
2021/08/15 02:30:03;;;;;;;11.12;7.40;;;;;;;17.08;61.80;100527.52;1677709;85;21017;-75
2021/08/15 02:32:30;;;;;;;13.22;7.78;;;;;;;17.09;61.87;100531.87;1677210;85;21635;-75
2021/08/15 02:34:56;;;;;;;15.98;7.08;;;;;;;17.10;61.97;100536.20;1651941;85;21035;-75
2021/08/15 02:37:23;;;;;;;14.53;7.12;;;;;;;17.09;62.03;100529.70;1677806;85;21269;-75
2021/08/15 02:39:51;;;;;;;12.30;6.80;;;;;;;17.06;62.12;100533.64;1676889;85;21067;-75
2021/08/15 02:42:19;;;;;;;19.50;7.20;;;;;;;17.04;62.20;100535.70;1675984;85;21018;-75
2021/08/15 02:44:45;;;;;;;11.50;7.83;;;;;;;17.02;62.26;100537.78;1674017;85;21070;-75
2021/08/15 02:47:11;;;;;;;14.68;8.18;;;;;;;17.00;62.35;100543.89;1674130;85;21083;-75
2021/08/15 02:49:40;;;;;;;17.70;7.67;;;;;;;16.97;62.42;100545.14;1674174;85;21582;-75
2021/08/15 02:52:09;;;;;;;10.38;7.67;;;;;;;16.95;62.50;100543.70;1674008;85;21022;-75
2021/08/15 02:54:35;;;;;;;12.90;8.60;;;;;;;16.93;62.56;100540.36;1674222;85;21023;-75
2021/08/15 02:57:02;;;;;;;14.35;7.95;;;;;;;16.92;62.67;100542.77;1673589;85;21090;-75
2021/08/15 02:59:28;;;;;;;13.40;7.45;;;;;;;16.90;62.72;100542.97;1673909;85;21112;-74
2021/08/15 03:01:54;;;;;;;12.03;6.97;;;;;;;16.89;62.77;100545.85;1673991;85;21181;-74
2021/08/15 03:04:20;;;;;;;14.35;7.90;;;;;;;16.84;62.81;100543.80;1674041;85;21019;-74
2021/08/15 03:06:46;;;;;;;13.78;7.35;;;;;;;16.82;62.90;100549.06;1674086;85;21023;-74
2021/08/15 03:09:12;;;;;;;13.35;8.13;;;;;;;16.77;63.00;100547.52;1674359;85;21034;-74
2021/08/15 03:11:38;;;;;;;14.15;8.68;;;;;;;16.74;63.08;100544.73;1674189;85;21479;-74
2021/08/15 03:14:04;;;;;;;14.00;8.28;;;;;;;16.71;63.17;100551.05;1674033;85;21802;-74
2021/08/15 03:16:30;;;;;;;14.90;7.75;;;;;;;16.67;63.25;100541.72;1673912;85;21022;-74
2021/08/15 03:18:56;;;;;;;12.43;8.20;;;;;;;16.64;63.34;100543.48;1673923;85;21038;-74
2021/08/15 03:21:29;;;;;;;12.43;7.50;;;;;;;16.60;63.41;100540.38;1674083;84;20907;-74
2021/08/15 03:23:50;;;;;;;11.78;8.13;;;;;;;16.55;63.54;100532.55;1672996;85;21062;-74
2021/08/15 03:26:17;;;;;;;14.00;9.33;;;;;;;16.50;63.62;100529.95;1673854;85;21165;-74
2021/08/15 03:28:43;;;;;;;13.68;8.60;;;;;;;16.46;63.73;100526.03;1673980;85;21038;-74
2021/08/15 03:31:09;;;;;;;9.48;7.78;;;;;;;16.40;63.82;100529.52;1673996;84;21038;-74
2021/08/15 03:33:35;;;;;;;13.40;8.35;;;;;;;16.36;63.94;100522.88;1674148;85;21018;-74
2021/08/15 03:36:01;;;;;;;13.78;9.25;;;;;;;16.29;64.03;100520.69;1673785;85;21086;-74
2021/08/15 03:38:27;;;;;;;18.10;8.60;;;;;;;16.24;64.17;100522.35;1673895;84;21192;-74
2021/08/15 03:40:53;;;;;;;17.85;10.08;;;;;;;16.20;64.27;100523.78;1674198;84;21123;-74
2021/08/15 03:43:19;;;;;;;12.70;8.58;;;;;;;16.18;64.36;100517.79;1676412;85;21074;-74
2021/08/15 03:45:45;;;;;;;15.25;9.45;;;;;;;16.13;64.47;100518.39;1676501;85;21018;-74
2021/08/15 03:48:11;;;;;;;17.98;9.65;;;;;;;16.06;64.60;100520.75;1624300;88;21035;-74
2021/08/15 03:50:37;;;;;;;19.42;9.40;;;;;;;16.03;64.72;100521.16;1676553;85;21193;-74
2021/08/15 03:53:03;;;;;;;12.37;8.40;;;;;;;15.99;64.83;100526.94;1676540;85;21546;-74
2021/08/15 03:55:29;;;;;;;15.00;10.18;;;;;;;15.97;64.94;100531.67;1624122;88;21087;-74
2021/08/15 03:57:55;;;;;;;15.55;8.38;;;;;;;15.96;65.03;100534.59;1676224;85;21041;-74
2021/08/15 04:00:21;;;;;;;14.98;8.75;;;;;;;15.94;65.13;100533.94;1676354;85;21098;-74
2021/08/15 04:02:47;;;;;;;16.00;8.98;;;;;;;15.95;65.20;100536.95;1624271;88;21051;-74
2021/08/15 04:05:13;;;;;;;11.88;8.70;;;;;;;15.97;65.26;100539.75;1675874;85;21050;-74
2021/08/15 04:07:39;;;;;;;13.95;8.68;;;;;;;15.99;65.32;100540.39;1676505;85;21061;-74
2021/08/15 04:10:08;;;;;;;12.90;7.72;;;;;;;16.02;65.39;100536.46;1624268;88;21052;-74
2021/08/15 04:12:35;;;;;;;12.60;8.08;;;;;;;16.06;65.44;100540.92;1676225;85;21078;-74
2021/08/15 04:15:01;;;;;;;18.48;8.75;;;;;;;16.09;65.48;100545.38;1676449;85;21167;-74
2021/08/15 04:17:27;;;;;;;14.87;8.18;;;;;;;16.16;65.56;100542.20;1651205;87;21019;-74
2021/08/15 04:19:53;;;;;;;13.65;8.53;;;;;;;16.29;65.64;100546.27;1668573;86;21025;-74
2021/08/15 04:22:19;;;;;;;15.65;8.40;;;;;;;16.70;65.82;100546.69;1652342;86;21019;-74
2021/08/15 04:24:45;;;;;;;14.83;7.87;;;;;;;17.46;65.80;100558.14;1676452;85;21070;-74
2021/08/15 04:27:11;;;;;;;13.30;7.87;;;;;;;18.20;65.47;100546.89;1676477;85;21737;-74
2021/08/15 04:29:39;;;;;;;12.47;8.00;;;;;;;19.06;65.04;100541.75;1624532;88;21673;-74
2021/08/15 04:32:07;;;;;;;14.18;7.90;;;;;;;19.82;64.49;100543.57;1676553;85;21018;-74
2021/08/15 04:34:34;;;;;;;13.50;8.38;;;;;;;20.54;63.83;100538.27;1676011;85;21491;-74
2021/08/15 04:37:01;;;;;;;10.70;7.00;;;;;;;21.16;63.22;100534.14;1650917;87;21550;-74
2021/08/15 04:39:27;;;;;;;14.33;7.00;;;;;;;21.78;62.60;100529.80;1652107;86;21889;-75
2021/08/15 04:41:53;;;;;;;13.38;6.45;;;;;;;22.27;61.78;100541.42;1679780;85;21090;-74
2021/08/15 04:44:19;;;;;;;13.32;7.65;;;;;;;22.77;61.07;100531.20;1683805;85;21049;-74
2021/08/15 04:46:45;;;;;;;11.55;7.00;;;;;;;23.34;60.21;100528.58;1684004;85;21083;-75
2021/08/15 04:49:11;;;;;;;21.27;7.28;;;;;;;23.75;59.16;100530.53;1683745;85;21035;-75
2021/08/15 04:51:37;;;;;;;10.93;7.20;;;;;;;23.92;58.10;100528.56;1683945;85;22107;-75
2021/08/15 04:54:03;;;;;;;15.95;6.55;;;;;;;23.55;57.06;100526.98;1683887;85;21467;-74
2021/08/15 04:56:29;;;;;;;15.38;6.08;;;;;;;23.54;56.98;100523.97;1683852;85;20922;-75
2021/08/15 04:58:55;;;;;;;12.30;6.85;;;;;;;24.31;56.62;100527.95;1683814;85;21338;-75
2021/08/15 05:01:21;;;;;;;14.35;6.50;;;;;;;24.93;55.59;100524.70;1684598;84;21030;-75
2021/08/15 05:03:49;;;;;;;12.50;6.60;;;;;;;25.23;54.33;100528.47;1689689;84;21814;-74
2021/08/15 05:06:15;;;;;;;13.15;6.37;;;;;;;25.37;53.05;100528.83;1687881;84;21486;-75
2021/08/15 05:08:41;;;;;;;11.85;6.50;;;;;;;25.03;52.64;100528.34;1684164;85;21025;-75
2021/08/15 05:11:07;;;;;;;12.45;5.87;;;;;;;24.59;52.68;100529.58;1683456;85;21049;-75
2021/08/15 05:13:33;;;;;;;13.43;5.75;;;;;;;24.08;52.74;100529.02;1683962;85;21116;-75
2021/08/15 05:15:59;;;;;;;7.92;5.47;;;;;;;23.77;52.84;100529.73;1684062;85;21890;-75
2021/08/15 05:18:25;;;;;;;8.38;5.95;;;;;;;23.35;52.85;100532.13;1683616;84;21373;-75
2021/08/15 05:20:51;;;;;;;10.88;5.72;;;;;;;23.23;52.84;100533.58;1684043;85;21017;-75
2021/08/15 05:23:17;;;;;;;16.17;6.37;;;;;;;23.21;52.79;100537.09;1684049;85;21017;-75
2021/08/15 05:25:43;;;;;;;8.55;5.92;;;;;;;23.24;52.75;100533.88;1684109;85;21045;-75
2021/08/15 05:28:09;;;;;;;11.53;5.85;;;;;;;23.33;52.61;100538.34;1683722;85;21797;-75
2021/08/15 05:30:36;;;;;;;9.80;6.20;;;;;;;23.48;52.56;100542.68;1683966;85;21087;-75
2021/08/15 05:33:02;;;;;;;10.53;6.60;;;;;;;23.50;52.36;100545.16;1658785;85;21415;-75
2021/08/15 05:35:28;;;;;;;12.60;6.42;;;;;;;23.42;52.18;100542.86;1683922;85;21088;-75
2021/08/15 05:37:54;;;;;;;14.95;6.55;;;;;;;23.51;52.14;100546.80;1683933;83;21052;-75
2021/08/15 05:40:20;;;;;;;14.35;6.28;;;;;;;23.53;51.95;100544.66;1683479;85;21849;-75
2021/08/15 05:42:46;;;;;;;11.45;6.08;;;;;;;23.61;51.77;100544.23;1663383;85;21025;-75
2021/08/15 05:45:12;;;;;;;8.25;5.37;;;;;;;23.67;51.68;100544.58;1664484;86;21044;-75
2021/08/15 05:47:38;;;;;;;9.70;5.80;;;;;;;23.69;51.52;100545.14;1652835;86;21021;-75
2021/08/15 05:50:06;;;;;;;10.78;5.53;;;;;;;23.75;51.36;100545.52;1664546;86;21023;-75
2021/08/15 05:52:32;;;;;;;10.80;5.47;;;;;;;23.84;51.29;100538.53;1664429;86;21519;-75
2021/08/15 05:54:58;;;;;;;11.38;5.12;;;;;;;23.69;51.16;100550.59;1664476;85;21054;-75
2021/08/15 05:57:24;;;;;;;11.95;5.83;;;;;;;23.68;51.12;100548.39;1664244;86;21046;-75
2021/08/15 05:59:50;;;;;;;7.92;4.97;;;;;;;23.64;51.05;100548.64;1664597;86;21042;-75
2021/08/15 06:02:16;;;;;;;10.53;4.70;;;;;;;23.62;51.01;100549.41;1664574;86;21503;-75
2021/08/15 06:04:42;;;;;;;12.58;5.87;;;;;;;23.71;50.87;100551.17;1664711;86;22482;-75
2021/08/15 06:07:10;;;;;;;12.53;5.72;;;;;;;23.79;50.79;100546.63;1664438;85;21439;-75
2021/08/15 06:09:36;;;;;;;8.50;4.47;;;;;;;23.65;50.71;100544.81;1664272;86;21090;-75
2021/08/15 06:12:05;;;;;;;9.98;5.08;;;;;;;23.29;50.79;100547.54;1664711;86;21022;-75
2021/08/15 06:14:31;;;;;;;9.83;5.05;;;;;;;23.11;50.84;100549.72;1664781;86;21086;-75
2021/08/15 06:16:57;;;;;;;8.88;5.00;;;;;;;23.19;50.88;100544.67;1664636;86;21654;-75
2021/08/15 06:19:23;;;;;;;13.68;4.90;;;;;;;23.39;50.91;100542.80;1652606;86;21029;-75
2021/08/15 06:21:49;;;;;;;10.63;5.42;;;;;;;23.53;50.77;100540.58;1664522;86;21023;-75
2021/08/15 06:24:15;;;;;;;8.83;4.97;;;;;;;23.64;50.79;100543.73;1664451;86;21034;-75
2021/08/15 06:26:41;;;;;;;9.63;4.75;;;;;;;23.74;50.82;100539.23;1664580;86;21446;-75
2021/08/15 06:29:07;;;;;;;13.32;5.42;;;;;;;23.60;50.71;100550.22;1664685;86;22518;-75
2021/08/15 06:31:33;;;;;;;11.63;5.40;;;;;;;23.43;50.79;100548.61;1664654;86;21014;-75
2021/08/15 06:33:59;;;;;;;9.70;4.92;;;;;;;23.49;50.86;100554.41;1664755;86;20908;-75
2021/08/15 06:36:26;;;;;;;12.10;4.30;;;;;;;23.43;50.89;100562.22;1664723;84;21058;-75
2021/08/15 06:38:52;;;;;;;15.40;5.83;;;;;;;23.42;50.96;100559.20;1664579;86;21042;-75
2021/08/15 06:41:18;;;;;;;8.88;5.15;;;;;;;23.39;50.99;100559.14;1664599;86;21744;-75
2021/08/15 06:43:44;;;;;;;10.23;5.17;;;;;;;23.16;51.00;100568.30;1688560;84;21020;-75
2021/08/15 06:46:10;;;;;;;9.68;4.92;;;;;;;23.20;51.10;100559.94;1690153;84;21056;-75
2021/08/15 06:48:36;;;;;;;13.28;5.70;;;;;;;23.48;51.15;100558.19;1690352;84;21607;-75
2021/08/15 06:51:03;;;;;;;11.75;5.75;;;;;;;23.66;51.18;100567.44;1690442;84;21438;-75
2021/08/15 06:53:30;;;;;;;9.10;4.85;;;;;;;23.82;51.07;100570.64;1690138;84;21737;-75
2021/08/15 06:55:58;;;;;;;11.63;5.47;;;;;;;23.91;51.06;100562.33;1690341;84;21281;-76
2021/08/15 06:58:27;;;;;;;18.82;6.08;;;;;;;24.08;51.05;100563.08;1690414;84;20929;-75
2021/08/15 07:00:54;;;;;;;11.30;4.40;;;;;;;24.20;50.78;100568.44;1690367;84;21060;-75
2021/08/15 07:03:20;;;;;;;11.43;4.22;;;;;;;24.25;50.69;100573.39;1690235;83;21020;-75
2021/08/15 07:05:46;;;;;;;18.75;5.42;;;;;;;24.30;50.62;100576.19;1681502;83;21858;-75
2021/08/15 07:08:13;;;;;;;9.88;4.47;;;;;;;24.23;50.40;100572.84;1685900;85;21521;-75
2021/08/15 07:10:39;;;;;;;10.08;4.75;;;;;;;24.26;50.14;100574.22;1686832;84;21530;-76
2021/08/15 07:13:07;;;;;;;14.00;4.92;;;;;;;24.35;50.01;100580.31;1673761;85;21471;-75
2021/08/15 07:15:33;;;;;;;11.30;3.95;;;;;;;24.44;49.82;100583.95;1672985;85;21030;-76
2021/08/15 07:17:59;;;;;;;11.48;4.65;;;;;;;24.50;49.60;100583.75;1673620;85;21853;-76
2021/08/15 07:20:25;;;;;;;13.45;5.00;;;;;;;24.52;49.36;100576.69;1677496;84;21034;-76
2021/08/15 07:22:51;;;;;;;9.10;4.35;;;;;;;24.59;49.17;100575.95;1666581;84;21019;-75
2021/08/15 07:25:17;;;;;;;12.88;4.40;;;;;;;24.45;48.96;100579.63;1675585;85;21002;-76
2021/08/15 07:27:44;;;;;;;8.63;4.05;;;;;;;24.43;48.96;100570.03;1675453;85;21541;-75
2021/08/15 07:30:10;;;;;;;10.82;4.37;;;;;;;24.59;48.95;100573.22;1675630;85;22455;-75
2021/08/15 07:32:36;;;;;;;11.97;4.83;;;;;;;24.66;48.81;100573.83;1675234;85;21462;-75
2021/08/15 07:35:02;;;;;;;7.97;3.98;;;;;;;24.71;48.68;100580.69;1655972;85;20954;-76
2021/08/15 07:37:28;;;;;;;11.28;5.03;;;;;;;24.78;48.61;100573.11;1678344;84;21411;-76
2021/08/15 07:39:54;;;;;;;11.70;4.62;;;;;;;24.90;48.49;100579.81;1653103;85;21056;-76
2021/08/15 07:42:21;;;;;;;11.78;4.55;;;;;;;25.03;48.41;100572.00;1645752;86;21878;-76
2021/08/15 07:44:47;;;;;;;13.15;4.80;;;;;;;25.23;48.14;100580.34;1679683;83;21332;-76
2021/08/15 07:47:13;;;;;;;13.28;5.47;;;;;;;25.33;47.95;100579.05;1676900;84;21036;-76
2021/08/15 07:49:39;;;;;;;8.63;4.05;;;;;;;25.66;47.87;100573.01;1654485;86;21002;-76
2021/08/15 07:52:06;;;;;;;16.23;4.62;;;;;;;25.77;47.50;100570.61;1698671;84;21032;-76
2021/08/15 07:54:32;;;;;;;9.50;4.12;;;;;;;25.92;47.33;100576.70;1654541;86;22537;-76
2021/08/15 07:56:58;;;;;;;10.08;4.20;;;;;;;25.82;47.04;100567.38;1698633;84;21430;-76
2021/08/15 07:59:25;;;;;;;8.40;4.33;;;;;;;25.75;46.83;100563.23;1694540;84;21351;-76
2021/08/15 08:01:51;;;;;;;7.85;4.05;;;;;;;25.62;46.81;100559.05;1698492;84;21004;-76
2021/08/15 08:04:18;;;;;;;7.92;4.37;;;;;;;25.69;46.73;100562.37;1698752;84;21008;-76
2021/08/15 08:06:44;;;;;;;7.50;3.80;;;;;;;25.62;46.54;100559.05;1697735;84;23000;-76
2021/08/15 08:09:10;;;;;;;11.93;4.37;;;;;;;25.55;46.49;100554.91;1696733;84;20994;-76
2021/08/15 08:11:36;;;;;;;10.65;4.30;;;;;;;25.54;46.42;100556.84;1697287;84;21021;-76
2021/08/15 08:14:02;;;;;;;10.58;4.40;;;;;;;25.41;46.40;100556.43;1697080;84;21046;-76
2021/08/15 08:16:28;;;;;;;11.00;4.25;;;;;;;25.66;46.27;100551.15;1697226;83;21010;-76
2021/08/15 08:18:54;;;;;;;10.68;3.50;;;;;;;25.67;46.21;100555.53;1697002;84;21843;-76
2021/08/15 08:21:20;;;;;;;8.75;3.92;;;;;;;25.73;46.08;100551.73;1702698;84;21528;-76
2021/08/15 08:23:46;;;;;;;15.40;4.55;;;;;;;25.71;45.94;100556.11;1695605;84;21797;-75
2021/08/15 08:26:12;;;;;;;9.85;4.10;;;;;;;25.59;46.08;100551.93;1695752;84;21053;-76
2021/08/15 08:28:38;;;;;;;10.80;4.05;;;;;;;25.32;45.94;100553.39;1695669;84;21097;-76
2021/08/15 08:31:04;;;;;;;8.65;4.08;;;;;;;25.10;46.05;100557.59;1697074;84;21825;-76
2021/08/15 08:33:30;;;;;;;10.15;4.37;;;;;;;25.20;46.09;100557.66;1696697;84;21018;-76
2021/08/15 08:35:57;;;;;;;7.58;4.15;;;;;;;25.29;45.98;100553.92;1682485;84;21066;-76
2021/08/15 08:38:24;;;;;;;9.63;3.98;;;;;;;25.34;46.03;100547.94;1698045;84;21090;-76
2021/08/15 08:40:50;;;;;;;11.78;3.90;;;;;;;25.50;46.16;100552.13;1683537;85;21033;-76
2021/08/15 08:43:21;;;;;;;9.58;4.30;;;;;;;25.66;46.13;100549.78;1678703;85;21944;-76
2021/08/15 08:45:47;;;;;;;10.70;3.98;;;;;;;25.86;46.03;100547.17;1673233;85;21435;-77
2021/08/15 08:48:15;;;;;;;13.38;4.05;;;;;;;25.84;45.79;100540.59;1658144;85;21021;-76
2021/08/15 08:50:41;;;;;;;9.00;3.40;;;;;;;25.65;45.66;100539.39;1657250;85;21553;-76
2021/08/15 08:53:07;;;;;;;8.03;4.20;;;;;;;25.53;45.56;100532.51;1671096;84;21199;-76
2021/08/15 08:55:33;;;;;;;11.15;3.65;;;;;;;25.63;45.63;100536.12;1705038;84;21800;-76
2021/08/15 08:57:59;;;;;;;11.53;4.30;;;;;;;25.89;45.62;100532.97;1673180;84;21098;-76
2021/08/15 09:00:25;;;;;;;21.33;4.95;;;;;;;26.10;45.49;100533.31;1676342;85;21064;-76
2021/08/15 09:02:57;;;;;;;11.53;4.33;;;;;;;26.21;45.27;100532.26;1676766;85;21052;-76
2021/08/15 09:05:32;;;;;;;7.22;3.80;;;;;;;26.19;45.19;100530.35;1695799;83;21044;-76
2021/08/15 09:07:58;;;;;;;12.68;4.00;;;;;;;26.33;45.05;100527.92;1704480;84;21857;-76
2021/08/15 09:10:38;;;;;;;8.33;3.85;;;;;;;26.51;44.86;100529.31;1668725;84;21038;-76
2021/08/15 09:13:08;;;;;;;7.17;4.22;;;;;;;26.54;44.67;100527.41;1675132;85;21021;-76
2021/08/15 09:15:35;;;;;;;10.88;3.87;;;;;;;26.59;44.53;100530.16;1675301;85;21021;-76
2021/08/15 09:18:01;;;;;;;5.65;3.37;;;;;;;26.68;44.26;100531.25;1675871;84;21042;-77
2021/08/15 09:20:42;;;;;;;13.40;4.30;;;;;;;26.76;44.18;100532.91;1676158;84;22590;-76
2021/08/15 09:23:25;;;;;;;7.62;4.10;;;;;;;26.95;43.96;100529.08;1646988;86;21036;-76
2021/08/15 09:26:16;;;;;;;9.40;4.17;;;;;;;27.03;43.78;100528.54;1644980;86;20972;-77
2021/08/15 09:28:42;;;;;;;7.90;3.80;;;;;;;27.14;43.60;100526.06;1665701;86;21048;-77
2021/08/15 09:31:30;;;;;;;8.03;3.37;;;;;;;27.20;43.40;100522.76;1646560;86;21115;-77
2021/08/15 09:33:57;;;;;;;8.35;3.55;;;;;;;27.32;43.32;100520.56;1648332;86;21985;-77
2021/08/15 09:36:34;;;;;;;9.15;3.15;;;;;;;27.49;43.10;100523.00;1645111;87;21052;-77
2021/08/15 09:39:03;;;;;;;11.83;4.25;;;;;;;27.48;42.91;100518.64;1689065;84;21525;-77
2021/08/15 09:41:36;;;;;;;9.00;4.40;;;;;;;27.54;42.72;100523.00;1676821;84;21102;-78
2021/08/15 09:44:23;;;;;;;8.55;3.12;;;;;;;27.43;42.59;100524.92;1696390;83;21018;-79
2021/08/15 09:47:12;;;;;;;9.53;3.30;;;;;;;27.45;42.46;100529.59;1662626;85;22577;-77
2021/08/15 09:49:43;;;;;;;;;;;;;;;27.17;42.19;100522.77;1653770;86;21064;-81
2021/08/15 09:52:13;;;;;;;9.40;4.08;;;;;;;27.11;42.29;100519.78;1651122;86;20172;-82
2021/08/15 09:54:39;;;;;;;7.55;3.50;;;;;;;26.98;42.35;100520.34;1652845;86;21042;-82
2021/08/15 09:57:09;;;;;;;8.10;3.92;;;;;;;26.90;42.37;100529.10;1651357;86;21483;-82
2021/08/15 09:59:36;;;;;;;;;;;;;;;26.88;42.24;100524.46;1655966;86;21714;-83
2021/08/15 10:02:04;;;;;;;8.75;3.40;;;;;;;26.87;42.17;100515.97;1648763;86;20149;-83
2021/08/15 10:04:30;;;;;;;7.22;4.08;;;;;;;27.06;42.32;100508.81;1650660;86;20991;-80
2021/08/15 10:06:56;;;;;;;7.15;3.47;;;;;;;27.17;42.11;100504.97;1682408;85;21617;-78
2021/08/15 10:09:24;;;;;;;6.55;3.30;;;;;;;27.21;42.01;100508.80;1679153;85;21037;-83
2021/08/15 10:11:50;;;;;;;7.65;3.87;;;;;;;27.30;42.08;100505.76;1622881;88;21900;-83
2021/08/15 10:14:16;;;;;;;6.30;3.15;;;;;;;27.26;42.01;100498.39;1651371;86;21010;-81
2021/08/15 10:16:57;;;;;;;9.83;3.50;;;;;;;27.18;41.97;100496.21;1653772;86;21407;-80
2021/08/15 10:19:42;;;;;;;8.00;3.40;;;;;;;27.16;41.91;100495.11;1653829;86;21469;-80
2021/08/15 10:22:08;;;;;;;6.12;3.58;;;;;;;27.19;42.02;100500.05;1653396;86;20974;-80
2021/08/15 10:24:50;;;;;;;10.05;4.25;;;;;;;27.26;41.98;100494.28;1651977;86;21826;-83
2021/08/15 10:27:43;;;;;;;8.90;3.42;;;;;;;27.30;41.92;100487.95;1683055;85;20942;-83
2021/08/15 10:30:29;;;;;;;8.25;3.92;;;;;;;27.43;41.89;100483.00;1620158;86;21054;-83
2021/08/15 10:33:01;;;;;;;5.25;3.62;;;;;;;27.58;41.77;100483.81;1652082;86;21059;-83
2021/08/15 10:35:35;;;;;;;8.58;4.42;;;;;;;27.61;41.71;100492.84;1683453;85;21022;-83
2021/08/15 10:38:19;;;;;;;8.65;3.60;;;;;;;27.55;41.57;100478.07;1677421;85;21844;-82
2021/08/15 10:40:49;;;;;;;7.55;3.60;;;;;;;27.53;41.58;100476.97;1648949;86;21035;-82
2021/08/15 10:43:26;;;;;;;8.93;3.90;;;;;;;27.42;41.49;100478.61;1653618;85;21060;-83
2021/08/15 10:46:11;;;;;;;9.80;3.70;;;;;;;27.37;41.40;100473.16;1661613;85;20979;-84
2021/08/15 10:49:00;;;;;;;4.67;2.85;;;;;;;27.23;41.25;100464.14;1671827;85;21058;-84
2021/08/15 10:51:43;;;;;;;;;;;;;;;27.26;41.27;100456.77;1654946;84;22596;-81
2021/08/15 10:54:42;;;;;;;7.40;3.58;;;;;;;27.44;41.27;100450.41;1630581;86;20174;-80
2021/08/15 10:57:08;;;;;;;15.45;3.37;;;;;;;27.63;41.12;100444.58;1660574;85;21051;-80
2021/08/15 10:59:39;;;;;;;7.50;3.60;;;;;;;27.57;41.11;100447.91;1636150;86;21074;-83
2021/08/15 11:02:14;;;;;;;13.25;4.25;;;;;;;27.56;41.11;100442.16;1632348;87;21477;-78
2021/08/15 11:04:56;;;;;;;5.78;3.50;;;;;;;27.69;41.08;100447.59;1631139;86;22022;-78
2021/08/15 11:07:38;;;;;;;8.08;3.65;;;;;;;27.71;40.96;100441.27;1629039;86;21104;-78
2021/08/15 11:10:06;;;;;;;11.93;3.60;;;;;;;27.52;40.86;100440.24;1651251;86;21025;-78
2021/08/15 11:12:33;;;;;;;7.90;3.53;;;;;;;27.44;40.79;100440.27;1652370;86;21061;-78
2021/08/15 11:15:05;;;;;;;6.58;2.98;;;;;;;27.24;40.70;100451.27;1652226;85;21018;-78
2021/08/15 11:17:33;;;;;;;8.18;3.27;;;;;;;27.07;40.80;100442.02;1652172;86;21903;-78
2021/08/15 11:20:33;;;;;;;6.28;3.80;;;;;;;27.02;40.96;100436.53;1652107;86;21041;-78
2021/08/15 11:23:10;;;;;;;5.67;3.47;;;;;;;27.13;41.01;100442.27;1652039;86;21533;-78
2021/08/15 11:25:36;;;;;;;9.20;3.90;;;;;;;27.04;40.84;100441.20;1652305;86;21498;-78